Time;durP1;ratioP1;P1;durP2;ratioP2;P2;SDS_P1;SDS_P2;PMS_P1;PMS_P2;Temp;Humidity;BMP_temperature;BMP_pressure;BME280_temperature;BME280_humidity;BME280_pressure;Samples;Min_cycle;Max_cycle;Signal;HPM_P1;HPM_P2
2023/09/13 00:01:31;;;;;;;11.73;7.20;;;;;;;-141.97;58.43;47474.88;5033277;28;20170;-81
2023/09/13 00:03:58;;;;;;;11.23;6.27;;;;;;;-141.97;58.69;47246.16;5033194;28;20174;-82
2023/09/13 00:06:24;;;;;;;15.33;7.17;;;;;;;-141.97;58.88;47436.44;5033274;28;20184;-81
2023/09/13 00:08:49;;;;;;;7.43;5.60;;;;;;;-141.97;59.01;47334.56;5031831;28;20173;-81
2023/09/13 00:11:15;;;;;;;9.23;6.00;;;;;;;-141.97;58.89;47515.22;5032880;28;20178;-81
2023/09/13 00:13:41;;;;;;;9.60;6.33;;;;;;;-141.97;58.91;47294.22;5032908;28;20175;-83
2023/09/13 00:16:07;;;;;;;10.77;6.43;;;;;;;-141.97;58.97;47348.03;5032882;28;20150;-84
2023/09/13 00:18:33;;;;;;;10.47;6.93;;;;;;;-141.97;60.11;47401.84;5032156;28;20196;-85
2023/09/13 00:20:58;;;;;;;8.77;6.10;;;;;;;-141.97;60.24;47519.06;5032663;28;20170;-84
2023/09/13 00:23:24;;;;;;;9.47;6.47;;;;;;;-141.97;61.36;47507.53;5031549;28;20547;-83
2023/09/13 00:25:49;;;;;;;11.57;6.40;;;;;;;-141.97;61.20;47447.97;5033109;28;20201;-85
2023/09/13 00:28:15;;;;;;;10.60;6.20;;;;;;;-141.97;60.99;47653.63;5032907;28;20308;-83
2023/09/13 00:30:40;;;;;;;11.13;6.40;;;;;;;-141.97;61.39;47444.13;5032406;28;20188;-82
2023/09/13 00:33:05;;;;;;;10.53;6.67;;;;;;;-141.97;63.19;47348.03;5032285;28;20223;-84
2023/09/13 00:35:31;;;;;;;8.83;6.80;;;;;;;-141.97;63.82;47570.97;5031132;28;20565;-84
2023/09/13 00:37:56;;;;;;;14.23;6.70;;;;;;;-141.97;64.53;47453.72;5032680;28;20280;-84
2023/09/13 00:40:22;;;;;;;14.53;6.67;;;;;;;-141.97;64.51;47480.63;5031669;28;20281;-84
2023/09/13 00:42:47;;;;;;;12.97;7.30;;;;;;;-141.97;65.68;47444.13;5033128;28;20166;-83
2023/09/13 00:45:13;;;;;;;14.20;7.80;;;;;;;-141.97;66.74;47465.25;5047471;28;20186;-84
2023/09/13 00:47:40;;;;;;;12.10;7.10;;;;;;;-141.97;66.37;47511.38;5031039;28;20178;-83
2023/09/13 00:50:09;;;;;;;12.70;7.90;;;;;;;-141.97;66.60;47478.72;5033753;28;20470;-83
2023/09/13 00:52:37;;;;;;;13.67;7.50;;;;;;;-141.97;65.24;47595.97;5043471;28;20652;-84
2023/09/13 00:55:04;;;;;;;12.77;7.07;;;;;;;-141.97;65.50;47409.53;5032973;28;20159;-83
2023/09/13 00:57:31;;;;;;;11.33;7.37;;;;;;;-141.97;65.33;47476.78;5031450;28;20196;-83
2023/09/13 00:59:56;;;;;;;12.27;7.43;;;;;;;-141.97;65.24;47620.94;5032936;28;20241;-83
2023/09/13 01:02:21;;;;;;;13.17;7.37;;;;;;;-141.97;64.61;47378.78;5034637;28;20654;-82
2023/09/13 01:04:47;;;;;;;12.57;7.60;;;;;;;-141.97;64.24;47578.66;5033511;28;20190;-83
2023/09/13 01:07:13;;;;;;;11.53;7.87;;;;;;;-141.97;64.37;47403.75;5032541;28;20166;-81
2023/09/13 01:09:39;;;;;;;11.43;7.20;;;;;;;-141.97;63.73;47417.22;5030841;28;20600;-82
2023/09/13 01:12:05;;;;;;;11.97;7.43;;;;;;;-141.97;64.13;47405.69;5032038;28;20185;-81
2023/09/13 01:14:31;;;;;;;13.47;7.90;;;;;;;-141.97;64.17;47553.69;5032242;28;20913;-81
2023/09/13 01:17:14;;;;;;;11.80;7.70;;;;;;;-141.97;63.89;47438.34;5031090;28;20174;-81
2023/09/13 01:19:42;;;;;;;11.97;7.30;;;;;;;-141.97;64.08;47478.72;5029434;28;20174;-80
2023/09/13 01:22:26;;;;;;;12.90;7.50;;;;;;;-141.97;64.74;47434.50;5031306;28;20232;-80
2023/09/13 01:25:13;;;;;;;13.87;7.47;;;;;;;-141.97;64.65;47465.25;5032116;28;20190;-83
2023/09/13 01:28:23;;;;;;;14.50;7.87;;;;;;;-141.97;64.83;47472.94;5035863;28;20170;-80
2023/09/13 01:30:49;;;;;;;14.90;7.93;;;;;;;-141.97;64.70;47497.94;5031321;28;20631;-80
2023/09/13 01:33:14;;;;;;;14.23;7.80;;;;;;;-141.97;64.52;47467.19;5031570;28;20169;-80
2023/09/13 01:35:40;;;;;;;11.73;8.10;;;;;;;-141.97;65.11;47465.25;5031130;28;20182;-80
2023/09/13 01:38:05;;;;;;;12.57;8.20;;;;;;;-141.97;64.54;47469.09;5031626;28;20159;-80
2023/09/13 01:40:35;;;;;;;14.13;7.90;;;;;;;-141.97;64.80;47434.50;5031617;28;20198;-81
2023/09/13 01:43:03;;;;;;;12.20;8.40;;;;;;;-141.97;64.61;47474.88;5031939;28;20166;-82
2023/09/13 01:45:31;;;;;;;16.00;8.80;;;;;;;-141.97;64.71;47396.06;5031496;28;20201;-84
2023/09/13 01:47:58;;;;;;;15.87;8.50;;;;;;;-141.97;64.92;47348.03;5032278;28;20190;-84
2023/09/13 01:50:23;;;;;;;13.80;8.67;;;;;;;-141.97;64.41;47426.81;5032316;28;20236;-84
2023/09/13 01:52:49;;;;;;;15.77;8.73;;;;;;;-141.97;64.34;47215.41;5033197;28;20650;-83
2023/09/13 01:55:14;;;;;;;13.27;8.87;;;;;;;-141.97;64.69;47446.03;5032826;28;20154;-84
2023/09/13 01:57:40;;;;;;;14.97;8.50;;;;;;;-141.97;64.79;47373.00;5032783;28;20200;-83
2023/09/13 02:00:06;;;;;;;15.37;8.90;;;;;;;-141.97;64.89;47384.53;5031536;28;20168;-84
2023/09/13 02:02:31;;;;;;;15.00;8.63;;;;;;;-141.97;65.03;47419.13;5031752;28;20216;-84
2023/09/13 02:04:56;;;;;;;12.53;8.70;;;;;;;-141.97;65.15;47459.50;5030824;28;20259;-84
2023/09/13 02:07:22;;;;;;;16.17;8.80;;;;;;;-141.97;64.84;47492.16;5031331;28;20166;-84
2023/09/13 02:09:47;;;;;;;13.40;8.43;;;;;;;-141.97;65.40;47488.31;5036261;28;20616;-84
2023/09/13 02:12:13;;;;;;;18.27;9.03;;;;;;;-141.97;66.42;47557.53;5035070;28;20223;-84
2023/09/13 02:14:41;;;;;;;15.43;8.93;;;;;;;-141.97;68.06;47570.97;5029237;28;20244;-83
2023/09/13 02:17:08;;;;;;;18.37;9.50;;;;;;;-141.97;68.32;47405.69;5030815;28;20619;-83
2023/09/13 02:19:35;;;;;;;16.53;9.60;;;;;;;-141.97;68.54;47515.22;5029646;28;20596;-83
2023/09/13 02:22:00;;;;;;;15.30;9.03;;;;;;;-141.97;68.79;47319.19;5028917;28;20625;-82
2023/09/13 02:24:25;;;;;;;16.80;9.50;;;;;;;-141.97;68.83;47453.72;5030329;28;20193;-83
2023/09/13 02:26:55;;;;;;;15.23;8.80;;;;;;;-141.97;68.85;47484.47;5030509;28;20170;-83
2023/09/13 02:29:22;;;;;;;15.93;9.30;;;;;;;-141.97;68.61;47469.09;5030345;28;20174;-84
2023/09/13 02:31:47;;;;;;;12.90;9.07;;;;;;;-141.97;68.36;47457.56;5030137;28;20484;-84
2023/09/13 02:34:12;;;;;;;13.70;8.90;;;;;;;-141.97;67.79;47403.75;5030286;28;20269;-84
2023/09/13 02:36:38;;;;;;;17.93;9.60;;;;;;;-141.97;67.49;47503.69;5030797;28;20158;-83
2023/09/13 02:39:03;;;;;;;16.07;9.23;;;;;;;-141.97;67.29;47480.63;5029801;28;20648;-83
2023/09/13 02:41:29;;;;;;;15.07;9.13;;;;;;;-141.97;67.49;47472.94;5030639;28;20165;-83
2023/09/13 02:43:54;;;;;;;15.60;9.57;;;;;;;-141.97;67.35;47447.97;5030808;28;20204;-83
2023/09/13 02:46:19;;;;;;;15.67;9.17;;;;;;;-141.97;67.07;47465.25;5030651;28;20213;-83
2023/09/13 02:48:45;;;;;;;14.27;9.30;;;;;;;-141.97;66.71;47430.66;5030579;28;20224;-83
2023/09/13 02:51:14;;;;;;;14.20;8.93;;;;;;;-141.97;66.27;47426.81;5030253;28;20571;-82
2023/09/13 02:53:40;;;;;;;15.00;9.03;;;;;;;-141.97;65.66;47482.56;5030189;28;20721;-83
2023/09/13 02:56:06;;;;;;;16.53;8.63;;;;;;;-141.97;64.81;47451.81;5041943;28;20237;-82
2023/09/13 02:58:32;;;;;;;17.03;8.60;;;;;;;-141.97;64.46;47617.09;5036770;28;20170;-83
2023/09/13 03:00:58;;;;;;;15.23;8.53;;;;;;;-141.97;64.65;47357.63;5030058;28;20174;-84
2023/09/13 03:03:24;;;;;;;12.80;8.53;;;;;;;-141.97;64.43;47430.66;5031045;28;20162;-85
2023/09/13 03:05:49;;;;;;;18.67;8.83;;;;;;;-141.97;64.85;47461.41;5030099;28;20198;-85
2023/09/13 03:08:14;;;;;;;15.10;8.73;;;;;;;-141.97;64.74;47392.22;5033412;28;20649;-85
2023/09/13 03:10:40;;;;;;;13.20;8.10;;;;;;;-141.97;65.02;47480.63;5034222;28;20181;-84
2023/09/13 03:13:05;;;;;;;18.30;8.43;;;;;;;-141.97;65.30;47471.03;5032748;28;20263;-85
2023/09/13 03:15:34;;;;;;;13.57;8.83;;;;;;;-141.97;65.35;47463.34;5034709;28;20629;-85
2023/09/13 03:18:00;;;;;;;17.47;8.97;;;;;;;-141.97;65.90;47501.78;5041108;28;20166;-82
2023/09/13 03:20:26;;;;;;;13.27;8.60;;;;;;;-141.97;66.52;47411.44;5035762;28;20255;-84
2023/09/13 03:22:51;;;;;;;18.37;9.50;;;;;;;-141.97;68.64;47440.28;5034236;28;20564;-83
2023/09/13 03:25:17;;;;;;;22.10;9.67;;;;;;;-141.97;69.48;47471.03;5033683;28;20221;-84
2023/09/13 03:27:43;;;;;;;15.60;9.20;;;;;;;-141.97;69.69;47424.91;5034176;28;20249;-84
2023/09/13 03:30:09;;;;;;;14.63;9.47;;;;;;;-141.97;69.11;47642.09;5034019;28;20158;-84
2023/09/13 03:32:34;;;;;;;18.43;9.60;;;;;;;-141.97;68.68;47538.28;5034295;28;20177;-84
2023/09/13 03:34:59;;;;;;;18.37;9.83;;;;;;;-141.97;68.61;47530.59;5032485;28;20170;-83
2023/09/13 03:37:25;;;;;;;24.47;11.50;;;;;;;-141.97;69.07;47469.09;5032502;28;20174;-84
2023/09/13 03:39:50;;;;;;;27.70;12.33;;;;;;;-141.97;70.50;47482.56;5033782;28;20304;-83
2023/09/13 03:42:16;;;;;;;24.37;12.17;;;;;;;-141.97;71.92;47649.78;5033735;28;20227;-84
2023/09/13 03:44:41;;;;;;;26.50;12.17;;;;;;;-141.97;73.01;47338.41;5043368;28;20201;-83
2023/09/13 03:47:06;;;;;;;21.43;11.73;;;;;;;-141.97;72.49;47615.19;5033129;28;20227;-82
2023/09/13 03:49:32;;;;;;;19.17;10.93;;;;;;;-141.97;73.04;47363.41;5036713;28;20188;-83
2023/09/13 03:51:57;;;;;;;17.97;11.37;;;;;;;-141.97;73.48;47486.41;5048418;28;20170;-83
2023/09/13 03:54:23;;;;;;;22.27;12.13;;;;;;;-141.97;73.16;47361.47;5042083;28;20281;-83
2023/09/13 03:56:48;;;;;;;21.83;11.20;;;;;;;-141.97;72.52;47349.94;5037506;28;20170;-83
2023/09/13 03:59:13;;;;;;;16.47;10.80;;;;;;;-141.97;72.39;47267.31;5032852;28;20560;-83
2023/09/13 04:01:39;;;;;;;23.17;11.00;;;;;;;-141.97;73.69;47344.19;5034782;28;20180;-84
2023/09/13 04:04:04;;;;;;;23.50;11.70;;;;;;;-141.97;73.27;47349.94;5035965;28;20169;-83
2023/09/13 04:06:30;;;;;;;17.63;11.13;;;;;;;-141.97;72.63;47561.38;5037636;28;20180;-84
2023/09/13 04:08:56;;;;;;;18.00;11.60;;;;;;;-141.97;72.99;47467.19;5037755;28;20166;-81
2023/09/13 04:11:21;;;;;;;24.70;11.93;;;;;;;-141.97;73.23;47515.22;5034344;28;20193;-83
2023/09/13 04:13:47;;;;;;;25.47;12.90;;;;;;;-141.97;74.03;47492.16;5033489;28;20256;-81
2023/09/13 04:16:16;;;;;;;25.97;12.43;;;;;;;-141.97;74.43;47544.06;5032861;28;20166;-82
2023/09/13 04:18:41;;;;;;;28.10;12.90;;;;;;;-141.97;74.52;47488.31;5038465;28;20173;-82
2023/09/13 04:21:07;;;;;;;27.50;12.43;;;;;;;-141.97;74.05;47478.72;5035001;28;20162;-82
2023/09/13 04:23:32;;;;;;;30.07;13.40;;;;;;;-141.97;74.68;47461.41;5032768;28;20224;-82
2023/09/13 04:25:58;;;;;;;25.33;12.87;;;;;;;-141.97;75.30;47415.28;5032480;28;20264;-82
2023/09/13 04:28:23;;;;;;;23.63;12.13;;;;;;;-141.97;74.74;47513.31;5032812;28;20209;-82
2023/09/13 04:30:49;;;;;;;29.00;12.37;;;;;;;-141.97;74.89;47486.41;5032648;28;20540;-81
2023/09/13 04:33:14;;;;;;;25.73;12.03;;;;;;;-141.97;74.02;47532.53;5032480;28;20232;-81
2023/09/13 04:35:39;;;;;;;25.50;12.30;;;;;;;-141.97;73.49;47484.47;5032322;28;20187;-82
2023/09/13 04:38:05;;;;;;;19.20;11.17;;;;;;;-141.97;72.23;47486.41;5032689;28;20166;-83
2023/09/13 04:40:31;;;;;;;20.50;11.03;;;;;;;-141.97;71.54;47482.56;5033009;28;20212;-82
2023/09/13 04:43:16;;;;;;;24.17;11.13;;;;;;;-141.97;70.92;47522.91;5037435;28;20167;-87
2023/09/13 04:45:41;;;;;;;17.90;10.63;;;;;;;-141.97;70.54;47644.00;5033576;28;20216;-84
2023/09/13 04:48:07;;;;;;;17.37;10.77;;;;;;;-141.97;70.70;47517.16;5032789;28;20546;-84
2023/09/13 04:50:32;;;;;;;19.20;10.27;;;;;;;-141.97;70.63;47447.97;5032383;28;20181;-83
2023/09/13 04:52:58;;;;;;;19.57;10.30;;;;;;;-141.97;69.85;47328.81;5031964;28;20589;-85
2023/09/13 04:55:24;;;;;;;16.40;10.43;;;;;;;-141.97;70.06;47294.22;5031926;28;20177;-83
2023/09/13 04:57:49;;;;;;;20.07;11.40;;;;;;;-141.97;69.52;47257.69;5032633;28;20603;-84
2023/09/13 05:00:16;;;;;;;21.00;11.93;;;;;;;-141.97;70.57;47457.56;5035922;28;20257;-83
2023/09/13 05:02:41;;;;;;;21.40;11.67;;;;;;;-141.97;71.57;47519.06;5036933;28;20169;-84
2023/09/13 05:05:07;;;;;;;19.73;11.30;;;;;;;-141.97;71.02;47517.16;5031608;28;20198;-84
2023/09/13 05:07:33;;;;;;;18.77;10.97;;;;;;;-141.97;70.62;47378.78;5032052;28;20173;-84
2023/09/13 05:09:58;;;;;;;16.77;11.03;;;;;;;-141.97;70.90;47553.69;5032415;28;20643;-83
2023/09/13 05:12:24;;;;;;;16.87;10.37;;;;;;;-141.97;70.62;47407.59;5031951;28;20607;-83
2023/09/13 05:14:49;;;;;;;19.07;10.87;;;;;;;-141.97;70.64;47480.63;5030375;28;20171;-83
2023/09/13 05:17:15;;;;;;;16.73;10.63;;;;;;;-141.97;70.53;47478.72;5031785;28;20154;-83
2023/09/13 05:19:40;;;;;;;18.20;10.10;;;;;;;-141.97;70.28;47647.84;5031933;28;20197;-83
2023/09/13 05:22:05;;;;;;;19.17;10.37;;;;;;;-141.97;71.24;47684.38;5031715;28;20166;-83
2023/09/13 05:24:31;;;;;;;16.33;10.30;;;;;;;-141.97;71.10;47515.22;5031114;28;20198;-83
2023/09/13 05:26:56;;;;;;;18.00;10.33;;;;;;;-141.97;70.89;47469.09;5030873;28;20178;-83
2023/09/13 05:29:22;;;;;;;18.40;10.83;;;;;;;-141.97;70.13;47661.31;5031217;28;20232;-83
2023/09/13 05:31:48;;;;;;;15.87;10.50;;;;;;;-141.97;69.86;47511.38;5030380;28;20166;-84
2023/09/13 05:34:14;;;;;;;17.53;10.33;;;;;;;-141.97;70.38;47469.09;5030539;28;20172;-83
2023/09/13 05:36:41;;;;;;;18.13;10.37;;;;;;;-141.97;69.81;47365.31;5031271;28;20178;-83
2023/09/13 05:39:07;;;;;;;16.80;10.53;;;;;;;-141.97;69.95;47492.16;5030357;28;20248;-83
2023/09/13 05:41:32;;;;;;;15.27;10.63;;;;;;;-141.97;69.65;47492.16;5031496;28;20162;-84
2023/09/13 05:43:58;;;;;;;20.03;9.93;;;;;;;-141.97;68.60;47534.44;5030185;28;20331;-87
2023/09/13 05:46:23;;;;;;;13.90;9.57;;;;;;;-141.97;68.25;47488.31;5030677;28;20279;-83
2023/09/13 05:48:48;;;;;;;17.67;9.80;;;;;;;-141.97;68.18;47373.00;5029861;28;20166;-84
2023/09/13 05:51:14;;;;;;;14.13;9.33;;;;;;;-141.97;67.58;47303.81;5031387;28;20166;-82
2023/09/13 05:53:39;;;;;;;14.27;9.60;;;;;;;-141.97;68.06;47422.97;5030947;28;20221;-83
2023/09/13 05:56:05;;;;;;;16.97;9.90;;;;;;;-141.97;67.84;47476.78;5033642;28;20169;-82
2023/09/13 05:58:30;;;;;;;12.63;9.07;;;;;;;-141.97;67.76;47522.91;5031395;28;20166;-82
2023/09/13 06:00:57;;;;;;;13.40;9.07;;;;;;;-141.97;67.30;47461.41;5031145;28;20529;-83
2023/09/13 06:03:22;;;;;;;13.10;8.73;;;;;;;-141.97;66.33;47630.56;5030301;28;20642;-84
2023/09/13 06:05:51;;;;;;;13.13;8.57;;;;;;;-141.97;65.58;47394.16;5029213;28;20200;-83
2023/09/13 06:08:17;;;;;;;14.57;8.83;;;;;;;-141.97;63.96;47467.19;5031028;28;20166;-83
2023/09/13 06:10:43;;;;;;;21.40;12.17;;;;;;;-141.97;62.96;47515.22;5032158;28;20162;-83
2023/09/13 06:13:08;;;;;;;22.43;14.73;;;;;;;-141.97;61.65;47453.72;5035138;28;20196;-81
2023/09/13 06:15:33;;;;;;;15.87;9.07;;;;;;;-141.97;61.40;47655.53;5032077;28;20170;-82
2023/09/13 06:17:59;;;;;;;14.47;8.97;;;;;;;-141.97;63.36;47501.78;5033180;28;20173;-83
2023/09/13 06:20:24;;;;;;;18.80;9.03;;;;;;;-141.97;63.55;47488.31;5032562;28;20177;-83
2023/09/13 06:22:50;;;;;;;19.93;9.20;;;;;;;-141.97;62.20;47469.09;5031088;28;20224;-83
2023/09/13 06:25:17;;;;;;;16.30;8.90;;;;;;;-141.97;62.04;47453.72;5030715;28;20189;-82
2023/09/13 06:27:43;;;;;;;15.60;8.97;;;;;;;-141.97;61.90;47661.31;5030617;28;20166;-85
2023/09/13 06:30:09;;;;;;;14.20;8.33;;;;;;;-141.97;61.62;47469.09;5030647;28;20255;-82
2023/09/13 06:32:34;;;;;;;14.40;8.70;;;;;;;-141.97;61.22;47288.44;5030636;28;20194;-83
2023/09/13 06:35:00;;;;;;;14.20;9.10;;;;;;;-141.97;61.37;47490.25;5028792;28;20158;-83
2023/09/13 06:37:25;;;;;;;18.43;9.30;;;;;;;-141.97;60.67;47457.56;5030630;28;20170;-82
2023/09/13 06:39:52;;;;;;;15.00;8.83;;;;;;;-141.97;60.37;47453.72;5030814;28;20204;-83
2023/09/13 06:42:17;;;;;;;15.53;8.87;;;;;;;-141.97;59.62;47401.84;5034364;28;20583;-83
2023/09/13 06:44:43;;;;;;;18.77;9.40;;;;;;;-141.97;60.29;47519.06;5031150;28;20204;-83
2023/09/13 06:47:08;;;;;;;16.20;9.33;;;;;;;-141.97;59.59;47638.25;5034000;28;20201;-83
2023/09/13 06:49:35;;;;;;;16.97;9.30;;;;;;;-141.97;59.97;47511.38;5034474;28;20257;-84
2023/09/13 06:52:01;;;;;;;13.77;8.20;;;;;;;-141.97;58.95;47388.38;5034473;28;20173;-84
2023/09/13 06:54:26;;;;;;;15.53;9.43;;;;;;;-141.97;58.52;47465.25;5033304;28;20204;-83
2023/09/13 06:56:52;;;;;;;16.63;9.47;;;;;;;-141.97;57.37;47336.50;5034463;28;20192;-83
2023/09/13 06:59:19;;;;;;;13.67;8.87;;;;;;;-141.97;55.68;47340.34;5062262;28;20237;-83
2023/09/13 07:01:45;;;;;;;14.70;9.37;;;;;;;-141.97;54.08;47601.72;5050962;28;20158;-84
2023/09/13 07:04:10;;;;;;;16.33;8.70;;;;;;;-141.97;53.30;47478.72;5036654;28;20204;-83
2023/09/13 07:06:36;;;;;;;17.30;9.73;;;;;;;-141.97;52.39;47594.03;5042498;28;20178;-84
2023/09/13 07:09:02;;;;;;;11.77;8.70;;;;;;;-141.97;51.94;47469.09;5034852;28;20177;-84
2023/09/13 07:11:28;;;;;;;11.57;8.10;;;;;;;-141.97;51.35;47580.59;5034586;28;20158;-85
2023/09/13 07:13:54;;;;;;;12.90;8.33;;;;;;;-141.97;51.90;47265.38;5034841;28;20259;-84
2023/09/13 07:16:19;;;;;;;12.23;7.90;;;;;;;-141.97;51.90;47299.97;5036527;28;20213;-83
2023/09/13 07:18:44;;;;;;;15.47;8.17;;;;;;;-141.97;51.93;47434.50;5037953;28;20627;-84
2023/09/13 07:21:47;;;;;;;;;;;;;;;;;;;;;
2023/09/13 07:24:15;;;;;;;12.03;7.97;;;;;;;-141.97;51.16;47234.63;5036209;28;20173;-84
2023/09/13 07:26:41;;;;;;;15.33;9.10;;;;;;;-141.97;51.22;47349.94;5034968;28;20439;-84
2023/09/13 07:29:06;;;;;;;10.83;7.83;;;;;;;-141.97;50.15;47411.44;5034809;28;20216;-84
2023/09/13 07:31:32;;;;;;;12.20;8.10;;;;;;;-141.97;49.41;47382.63;5034427;28;20162;-85
2023/09/13 07:34:02;;;;;;;15.90;7.90;;;;;;;-141.97;48.47;47407.59;5034762;28;20166;-83
2023/09/13 07:36:27;;;;;;;12.67;7.87;;;;;;;-141.97;47.04;47449.88;5032882;28;20288;-83
2023/09/13 07:38:55;;;;;;;11.47;7.70;;;;;;;-141.97;47.01;47382.63;5033103;28;20729;-85
2023/09/13 07:41:21;;;;;;;15.03;7.77;;;;;;;-141.97;48.21;47261.53;5038860;28;20162;-85
2023/09/13 07:43:46;;;;;;;13.00;7.67;;;;;;;-141.97;46.56;47442.19;5049979;28;20195;-84
2023/09/13 07:46:12;;;;;;;15.83;7.53;;;;;;;-141.97;45.25;47369.16;5057629;28;20209;-85
2023/09/13 07:48:37;;;;;;;13.33;7.80;;;;;;;-141.97;45.59;47292.28;5038902;28;20193;-85
2023/09/13 07:51:04;;;;;;;11.50;7.77;;;;;;;-141.97;45.52;47373.00;5035517;28;20220;-86
2023/09/13 07:53:30;;;;;;;12.90;7.50;;;;;;;-141.97;44.85;47417.22;5032602;28;20324;-84
2023/09/13 07:55:59;;;;;;;11.53;7.70;;;;;;;-141.97;44.09;47376.84;5033513;28;20245;-84
2023/09/13 07:58:24;;;;;;;10.77;7.20;;;;;;;-141.97;43.12;47355.72;5034092;28;20685;-84
2023/09/13 08:00:50;;;;;;;11.93;7.57;;;;;;;-141.97;42.92;47353.78;5032582;28;20201;-85
2023/09/13 08:03:15;;;;;;;10.97;7.30;;;;;;;-141.97;43.35;47630.56;5034482;28;20166;-85
2023/09/13 08:05:45;;;;;;;10.77;7.50;;;;;;;-141.97;43.35;47307.66;5033883;28;20264;-86
2023/09/13 08:08:12;;;;;;;13.57;7.50;;;;;;;-141.97;42.51;47457.56;5034136;28;20630;-84
2023/09/13 08:10:40;;;;;;;12.63;7.20;;;;;;;-141.97;41.88;47340.34;5033773;28;20162;-83
2023/09/13 08:13:06;;;;;;;13.23;7.20;;;;;;;-141.97;42.48;47319.19;5034249;28;20170;-84
2023/09/13 08:15:32;;;;;;;9.47;7.20;;;;;;;-141.97;42.04;47411.44;5033654;28;20158;-84
2023/09/13 08:17:57;;;;;;;10.70;6.90;;;;;;;-141.97;40.93;47390.31;5034638;28;20174;-84
2023/09/13 08:20:22;;;;;;;10.33;7.60;;;;;;;-141.97;39.91;47392.22;5043706;28;20607;-85
2023/09/13 08:22:48;;;;;;;9.03;7.70;;;;;;;-141.97;39.91;47248.09;5053619;28;20170;-87
2023/09/13 08:25:16;;;;;;;9.85;7.20;;;;;;;-141.97;39.54;47150.06;5043858;28;20246;-84
2023/09/13 08:27:42;;;;;;;10.53;7.40;;;;;;;-141.97;39.71;47342.25;5044208;28;20211;-87
2023/09/13 08:30:08;;;;;;;10.20;7.27;;;;;;;-141.97;39.47;47378.78;5042332;28;20194;-84
2023/09/13 08:32:34;;;;;;;12.47;7.30;;;;;;;-141.97;39.99;47351.88;5034849;28;20709;-85
2023/09/13 08:34:59;;;;;;;13.10;7.33;;;;;;;-141.97;39.63;47294.22;5032480;28;20166;-85
2023/09/13 08:37:25;;;;;;;9.87;7.47;;;;;;;-141.97;39.01;47373.00;5033440;28;20246;-83
2023/09/13 08:39:51;;;;;;;12.43;7.40;;;;;;;-141.97;38.40;47328.81;5032501;28;20186;-85
2023/09/13 08:42:17;;;;;;;10.95;7.13;;;;;;;-141.97;38.28;47323.03;5033491;28;20254;-86
2023/09/13 08:44:44;;;;;;;14.55;7.60;;;;;;;-141.97;37.80;47484.47;5048721;28;20266;-85
2023/09/13 08:47:11;;;;;;;13.52;7.55;;;;;;;-141.97;38.22;47217.34;5033486;28;20176;-84
2023/09/13 08:49:38;;;;;;;11.25;7.20;;;;;;;-141.97;37.94;47407.59;5031811;28;20195;-86
2023/09/13 08:52:05;;;;;;;10.77;7.40;;;;;;;-141.97;38.78;47496.00;5033551;28;20174;-83
2023/09/13 08:54:32;;;;;;;12.60;7.10;;;;;;;-141.97;39.08;47303.81;5033044;28;20191;-83
2023/09/13 08:56:59;;;;;;;11.68;7.30;;;;;;;-141.97;39.56;47409.53;5032069;28;20186;-84
2023/09/13 08:59:25;;;;;;;10.32;7.28;;;;;;;-141.97;38.10;47411.44;5036092;28;20607;-85
2023/09/13 09:01:53;;;;;;;11.30;7.00;;;;;;;-141.97;39.22;47374.94;5033125;28;20241;-85
2023/09/13 09:04:20;;;;;;;10.85;7.18;;;;;;;-141.97;38.18;47373.00;5030674;28;20175;-83
2023/09/13 09:06:46;;;;;;;13.65;7.30;;;;;;;-141.97;38.10;47376.84;5033179;28;20163;-83
2023/09/13 09:09:13;;;;;;;11.10;7.28;;;;;;;-141.97;37.85;47217.34;5034770;28;20191;-83
2023/09/13 09:11:42;;;;;;;14.02;7.38;;;;;;;-141.97;36.93;47349.94;5036778;28;20188;-85
2023/09/13 09:14:11;;;;;;;11.38;7.03;;;;;;;-141.97;37.56;47519.06;5032998;28;20200;-85
2023/09/13 09:16:38;;;;;;;14.23;7.78;;;;;;;-141.97;36.96;47569.06;5032911;28;20213;-82
2023/09/13 09:19:05;;;;;;;11.57;6.70;;;;;;;-141.97;36.03;47259.63;5032943;28;20625;-83
2023/09/13 09:21:33;;;;;;;9.48;7.05;;;;;;;-141.97;35.66;47363.41;5031678;28;20246;-84
2023/09/13 09:24:01;;;;;;;14.95;7.65;;;;;;;-141.97;35.78;47371.09;5032180;28;20168;-84
2023/09/13 09:26:26;;;;;;;11.10;7.30;;;;;;;-141.97;35.02;47138.53;5005283;28;20232;-84
2023/09/13 09:28:52;;;;;;;9.77;6.93;;;;;;;-141.97;34.51;47373.00;5013104;28;20524;-83
2023/09/13 09:31:19;;;;;;;12.68;7.38;;;;;;;-141.97;35.45;47349.94;5012539;28;20156;-85
2023/09/13 09:33:47;;;;;;;11.90;7.05;;;;;;;-141.97;35.43;47240.41;5021582;28;20830;-84
2023/09/13 09:36:13;;;;;;;9.98;6.88;;;;;;;-141.97;36.30;47407.59;5031969;28;20220;-84
2023/09/13 09:38:43;;;;;;;10.63;6.82;;;;;;;-141.97;35.71;47346.09;5032026;28;20189;-83
2023/09/13 09:41:09;;;;;;;11.45;6.95;;;;;;;-141.97;34.94;47161.59;5032606;28;20194;-84
2023/09/13 09:43:36;;;;;;;12.82;7.13;;;;;;;-141.97;34.42;47353.78;5035030;28;20185;-84
2023/09/13 09:46:01;;;;;;;9.65;6.80;;;;;;;-141.97;33.93;47488.31;5033805;28;20193;-84
2023/09/13 09:48:27;;;;;;;14.80;7.50;;;;;;;-141.97;34.18;47342.25;5031533;28;20197;-84
2023/09/13 09:50:54;;;;;;;9.73;7.57;;;;;;;-141.97;34.71;47449.88;5036418;28;20189;-84
2023/09/13 09:53:23;;;;;;;13.73;6.80;;;;;;;-141.97;34.34;47338.41;5037192;28;20781;-84
2023/09/13 09:55:50;;;;;;;11.10;6.80;;;;;;;-141.97;34.27;47424.91;5031359;28;20160;-85
2023/09/13 09:58:17;;;;;;;11.43;7.05;;;;;;;-141.97;33.62;47346.09;5033201;28;20312;-83
2023/09/13 10:00:48;;;;;;;11.85;7.25;;;;;;;-141.97;33.12;47338.41;5030009;28;20619;-84
2023/09/13 10:03:20;;;;;;;17.63;7.35;;;;;;;-141.97;33.06;47326.88;5030870;28;20194;-84
2023/09/13 10:06:10;;;;;;;19.27;7.75;;;;;;;-141.97;32.72;47309.59;5031018;28;20199;-84
2023/09/13 10:08:42;;;;;;;9.45;7.00;;;;;;;-141.97;32.88;47299.97;4954270;28;20195;-83
2023/09/13 10:11:09;;;;;;;11.25;6.68;;;;;;;-141.97;33.41;47332.66;4954342;28;20195;-86
2023/09/13 10:13:36;;;;;;;11.48;7.20;;;;;;;-141.97;32.76;47334.56;4969691;28;20202;-84
2023/09/13 10:16:02;;;;;;;10.82;6.68;;;;;;;-141.97;32.48;47349.94;4969993;28;20175;-81
2023/09/13 10:18:31;;;;;;;10.05;6.95;;;;;;;-141.97;32.68;47346.09;4953734;28;20640;-80
2023/09/13 10:20:58;;;;;;;10.30;6.93;;;;;;;-141.97;32.86;47284.59;4970661;28;20192;-82
2023/09/13 10:23:36;;;;;;;11.55;7.20;;;;;;;-141.97;32.86;47334.56;4951126;29;20200;-81
2023/09/13 10:26:02;;;;;;;13.45;7.10;;;;;;;-141.97;31.90;47315.34;4951517;29;20215;-82
2023/09/13 10:28:35;;;;;;;9.27;7.00;;;;;;;-141.97;31.68;47323.03;4951989;29;20172;-83
2023/09/13 10:31:03;;;;;;;10.63;6.35;;;;;;;-141.97;31.85;47284.59;4947934;28;20244;-84
2023/09/13 10:33:34;;;;;;;15.80;7.10;;;;;;;-141.97;32.31;47361.47;4961516;28;20232;-83
2023/09/13 10:36:02;;;;;;;13.65;7.25;;;;;;;-141.97;32.06;47267.31;4977281;28;20240;-81
2023/09/13 10:38:42;;;;;;;11.43;7.25;;;;;;;-141.97;32.11;47334.56;4973027;28;20199;-82
2023/09/13 10:41:13;;;;;;;12.35;7.22;;;;;;;-141.97;31.99;47326.88;4952705;29;20261;-84
2023/09/13 10:43:40;;;;;;;9.60;7.75;;;;;;;-141.97;32.37;47294.22;4945067;28;20190;-83
2023/09/13 10:46:16;;;;;;;12.40;7.63;;;;;;;-141.97;32.43;47565.22;5016871;28;20230;-85
2023/09/13 10:48:42;;;;;;;11.95;7.78;;;;;;;-141.97;32.05;47630.56;5033286;28;20611;-85
2023/09/13 10:51:10;;;;;;;12.98;8.02;;;;;;;-141.97;32.58;47107.78;5030109;28;20290;-83
2023/09/13 10:53:37;;;;;;;12.93;7.97;;;;;;;-141.97;32.88;47150.06;5030611;28;20324;-85
2023/09/13 10:56:03;;;;;;;11.40;7.80;;;;;;;-141.97;32.40;47334.56;5030480;28;20198;-86
2023/09/13 10:58:30;;;;;;;14.48;7.70;;;;;;;-141.97;32.61;47299.97;5029389;28;20267;-83
2023/09/13 11:00:57;;;;;;;8.80;7.53;;;;;;;-141.97;32.51;47338.41;5030039;28;20656;-85
2023/09/13 11:03:24;;;;;;;13.13;7.32;;;;;;;-141.97;32.18;47282.69;5031259;28;20224;-85
2023/09/13 11:05:57;;;;;;;12.07;7.68;;;;;;;-141.97;32.29;47127.00;5031186;28;20669;-83
2023/09/13 11:08:33;;;;;;;10.05;7.25;;;;;;;-141.97;32.00;47284.59;5040736;28;20164;-85